Time,TemperatureF,DewpointF,PressureIn,WindDirection,WindDirectionDegrees,WindSpeedMPH,WindSpeedGustMPH,Humidity,HourlyPrecipIn,Conditions,Clouds,dailyrainin,SoftwareType,DateUTC
2013-06-09 00:00:00,71.8,61.5,29.96,West,270,3.7,-999.0,70,-99.99,,,0.00,Acu-Link.com,2013-06-09 04:00:00,
2013-06-09 00:15:00,71.6,61.3,29.97,WNW,292,2.2,-999.0,70,-99.99,,,0.00,Acu-Link.com,2013-06-09 04:15:00,
2013-06-09 00:31:00,71.6,61.7,29.98,WNW,292,2.2,-999.0,71,-99.99,,,0.00,Acu-Link.com,2013-06-09 04:31:00,
2013-06-09 00:46:00,71.1,62.0,29.98,WNW,292,2.7,-999.0,73,-99.99,,,0.00,Acu-Link.com,2013-06-09 04:46:00,
2013-06-09 01:02:00,70.5,62.2,29.99,NNW,337,1.7,-999.0,75,-99.99,,,0.00,Acu-Link.com,2013-06-09 05:02:00,
2013-06-09 01:17:00,70.2,62.3,29.99,WNW,292,4.7,-999.0,76,-99.99,,,0.00,Acu-Link.com,2013-06-09 05:17:00,
2013-06-09 01:32:00,69.4,62.2,29.99,NW,315,3.2,-999.0,78,-99.99,,,0.00,Acu-Link.com,2013-06-09 05:32:00,
2013-06-09 01:47:00,68.9,62.1,30.00,WSW,247,3.2,-999.0,79,-99.99,,,0.00,Acu-Link.com,2013-06-09 05:47:00,
2013-06-09 02:02:00,68.5,62.1,30.00,SW,225,3.2,-999.0,80,-99.99,,,0.00,Acu-Link.com,2013-06-09 06:02:00,
2013-06-09 02:17:00,68.2,62.1,30.00,WSW,247,1.7,-999.0,81,-99.99,,,0.00,Acu-Link.com,2013-06-09 06:17:00,
2013-06-09 02:33:00,68.0,61.6,29.99,NNW,337,1.1,-999.0,80,-99.99,,,0.00,Acu-Link.com,2013-06-09 06:33:00,
2013-06-09 02:48:00,67.8,61.0,30.00,NNW,337,3.7,-999.0,79,-99.99,,,0.00,Acu-Link.com,2013-06-09 06:48:00,
2013-06-09 03:03:00,67.8,61.0,30.00,NW,315,3.2,-999.0,79,-99.99,,,0.00,Acu-Link.com,2013-06-09 07:03:00,
2013-06-09 03:19:00,67.5,60.8,30.00,NW,315,0.0,-999.0,79,-99.99,,,0.00,Acu-Link.com,2013-06-09 07:19:00,
2013-06-09 03:34:00,66.7,60.7,30.00,WNW,292,3.2,-999.0,81,-99.99,,,0.00,Acu-Link.com,2013-06-09 07:34:00,
2013-06-09 03:49:00,66.6,60.6,30.01,NNE,22,1.1,-999.0,81,-99.99,,,0.00,Acu-Link.com,2013-06-09 07:49:00,
2013-06-09 04:04:00,66.0,60.3,30.01,WSW,247,2.2,-999.0,82,-99.99,,,0.00,Acu-Link.com,2013-06-09 08:04:00,
2013-06-09 04:19:00,65.7,60.0,30.01,West,270,3.2,-999.0,82,-99.99,,,0.00,Acu-Link.com,2013-06-09 08:19:00,
2013-06-09 04:35:00,65.8,60.1,30.02,NNE,22,1.1,-999.0,82,-99.99,,,0.00,Acu-Link.com,2013-06-09 08:35:00,
2013-06-09 04:50:00,66.0,60.0,30.03,West,270,3.7,-999.0,81,-99.99,,,0.00,Acu-Link.com,2013-06-09 08:50:00,
2013-06-09 05:05:00,65.7,60.0,30.05,West,270,4.2,-999.0,82,-99.99,,,0.00,Acu-Link.com,2013-06-09 09:05:00,
2013-06-09 05:20:00,65.1,59.5,30.04,West,270,3.7,-999.0,82,-99.99,,,0.00,Acu-Link.com,2013-06-09 09:20:00,
2013-06-09 05:36:00,64.9,59.6,30.05,SSW,202,2.7,-999.0,83,-99.99,,,0.00,Acu-Link.com,2013-06-09 09:36:00,
2013-06-09 06:07:00,64.6,59.7,30.07,West,270,1.1,-999.0,84,-99.99,,,0.00,Acu-Link.com,2013-06-09 10:07:00,
2013-06-09 06:22:00,64.8,60.2,30.08,NW,315,3.2,-999.0,85,-99.99,,,0.00,Acu-Link.com,2013-06-09 10:22:00,
2013-06-09 06:37:00,64.6,59.7,30.08,SW,225,0.0,-999.0,84,-99.99,,,0.00,Acu-Link.com,2013-06-09 10:37:00,
2013-06-09 06:52:00,65.7,60.0,30.08,NW,315,2.7,-999.0,82,-99.99,,,0.00,Acu-Link.com,2013-06-09 10:52:00,
2013-06-09 07:08:00,67.1,60.0,30.08,SW,225,2.2,-999.0,78,-99.99,,,0.00,Acu-Link.com,2013-06-09 11:08:00,
2013-06-09 07:23:00,68.2,60.3,30.08,NW,315,1.1,-999.0,76,-99.99,,,0.00,Acu-Link.com,2013-06-09 11:23:00,
2013-06-09 07:38:00,68.7,59.7,30.08,WSW,247,1.7,-999.0,73,-99.99,,,0.00,Acu-Link.com,2013-06-09 11:38:00,
2013-06-09 07:54:00,68.0,59.0,30.09,SSW,202,1.7,-999.0,73,-99.99,,,0.00,Acu-Link.com,2013-06-09 11:54:00,
2013-06-09 08:09:00,68.2,59.2,30.09,West,270,2.2,-999.0,73,-99.99,,,0.00,Acu-Link.com,2013-06-09 12:09:00,
2013-06-09 08:24:00,68.4,58.6,30.10,North,0,0.0,-999.0,71,-99.99,,,0.00,Acu-Link.com,2013-06-09 12:24:00,
2013-06-09 08:40:00,68.7,58.5,30.10,West,270,3.7,-999.0,70,-99.99,,,0.00,Acu-Link.com,2013-06-09 12:40:00,
2013-06-09 08:55:00,69.3,57.9,30.10,WNW,292,4.2,-999.0,67,-99.99,,,0.00,Acu-Link.com,2013-06-09 12:55:00,
2013-06-09 09:10:00,69.8,57.5,30.10,NW,315,4.7,-999.0,65,-99.99,,,0.00,Acu-Link.com,2013-06-09 13:10:00,
2013-06-09 09:25:00,71.4,58.1,30.10,North,0,3.2,-999.0,63,-99.99,,,0.00,Acu-Link.com,2013-06-09 13:25:00,
2013-06-09 09:40:00,73.0,58.3,30.10,SE,135,2.2,-999.0,60,-99.99,,,0.00,Acu-Link.com,2013-06-09 13:40:00,
2013-06-09 09:55:00,73.8,59.0,30.09,NNE,22,2.7,-999.0,60,-99.99,,,0.00,Acu-Link.com,2013-06-09 13:55:00,
2013-06-09 10:10:00,74.8,59.0,30.09,SSW,202,4.7,-999.0,58,-99.99,,,0.00,Acu-Link.com,2013-06-09 14:10:00,
2013-06-09 10:25:00,76.5,58.6,30.09,WNW,292,5.8,-999.0,54,-99.99,,,0.00,Acu-Link.com,2013-06-09 14:25:00,
2013-06-09 10:41:00,76.8,58.4,30.09,NNE,22,5.8,-999.0,53,-99.99,,,0.00,Acu-Link.com,2013-06-09 14:41:00,
2013-06-09 11:11:00,78.3,58.7,30.08,NW,315,5.8,-999.0,51,-99.99,,,0.00,Acu-Link.com,2013-06-09 15:11:00,
2013-06-09 11:27:00,78.4,59.3,30.08,SW,225,4.7,-999.0,52,-99.99,,,0.00,Acu-Link.com,2013-06-09 15:27:00,
2013-06-09 11:42:00,80.4,59.5,30.08,SW,225,9.4,-999.0,49,-99.99,,,0.00,Acu-Link.com,2013-06-09 15:42:00,
2013-06-09 11:57:00,79.0,58.8,30.08,East,90,3.2,-999.0,50,-99.99,,,0.00,Acu-Link.com,2013-06-09 15:57:00,
2013-06-09 12:13:00,79.0,59.3,30.07,ESE,112,2.7,-999.0,51,-99.99,,,0.00,Acu-Link.com,2013-06-09 16:13:00,
2013-06-09 12:28:00,79.3,59.0,30.07,NNW,337,4.7,-999.0,50,-99.99,,,0.00,Acu-Link.com,2013-06-09 16:28:00,
2013-06-09 12:44:00,80.1,59.2,30.07,SW,225,3.2,-999.0,49,-99.99,,,0.00,Acu-Link.com,2013-06-09 16:44:00,
2013-06-09 12:59:00,79.3,59.6,30.06,NW,315,1.7,-999.0,51,-99.99,,,0.00,Acu-Link.com,2013-06-09 16:59:00,
2013-06-09 13:14:00,80.2,59.9,30.06,SW,225,3.2,-999.0,50,-99.99,,,0.00,Acu-Link.com,2013-06-09 17:14:00,
2013-06-09 13:29:00,80.8,60.4,30.05,ESE,112,1.1,-999.0,50,-99.99,,,0.00,Acu-Link.com,2013-06-09 17:29:00,
2013-06-09 13:45:00,81.7,60.1,30.05,SSW,202,1.7,-999.0,48,-99.99,,,0.00,Acu-Link.com,2013-06-09 17:45:00,
2013-06-09 14:00:00,82.0,60.3,30.05,NNW,337,2.2,-999.0,48,-99.99,,,0.00,Acu-Link.com,2013-06-09 18:00:00,
2013-06-09 14:15:00,81.5,60.5,30.04,ENE,67,4.2,-999.0,49,-99.99,,,0.00,Acu-Link.com,2013-06-09 18:15:00,
2013-06-09 14:30:00,82.8,60.5,30.04,South,180,4.2,-999.0,47,-99.99,,,0.00,Acu-Link.com,2013-06-09 18:30:00,
2013-06-09 14:45:00,82.8,59.3,30.04,WNW,292,4.2,-999.0,45,-99.99,,,0.00,Acu-Link.com,2013-06-09 18:45:00,
2013-06-09 15:00:00,83.1,59.5,30.04,WNW,292,7.8,-999.0,45,-99.99,,,0.00,Acu-Link.com,2013-06-09 19:00:00,
2013-06-09 15:15:00,82.6,59.7,30.04,SW,225,6.8,-999.0,46,-99.99,,,0.00,Acu-Link.com,2013-06-09 19:15:00,
2013-06-09 16:17:00,83.8,60.2,30.02,SSW,202,4.2,-999.0,45,-99.99,,,0.00,Acu-Link.com,2013-06-09 20:17:00,
2013-06-09 16:32:00,84.0,60.3,30.01,ESE,112,2.7,-999.0,45,-99.99,,,0.00,Acu-Link.com,2013-06-09 20:32:00,
2013-06-09 16:47:00,83.1,60.8,30.01,SW,225,3.7,-999.0,47,-99.99,,,0.00,Acu-Link.com,2013-06-09 20:47:00,
2013-06-09 17:02:00,84.0,60.3,30.01,South,180,4.2,-999.0,45,-99.99,,,0.00,Acu-Link.com,2013-06-09 21:02:00,
2013-06-09 17:17:00,85.1,60.7,30.01,SW,225,1.7,-999.0,44,-99.99,,,0.00,Acu-Link.com,2013-06-09 21:17:00,
2013-06-09 17:32:00,83.1,60.1,30.01,WNW,292,4.2,-999.0,46,-99.99,,,0.00,Acu-Link.com,2013-06-09 21:32:00,
2013-06-09 17:48:00,86.2,61.0,30.01,South,180,2.2,-999.0,43,-99.99,,,0.00,Acu-Link.com,2013-06-09 21:48:00,
2013-06-09 18:03:00,84.4,60.7,30.01,South,180,2.7,-999.0,45,-99.99,,,0.00,Acu-Link.com,2013-06-09 22:03:00,
2013-06-09 18:19:00,82.9,60.6,30.02,WSW,247,4.2,-999.0,47,-99.99,,,0.00,Acu-Link.com,2013-06-09 22:19:00,
2013-06-09 18:34:00,84.7,61.6,30.02,SW,225,1.7,-999.0,46,-99.99,,,0.00,Acu-Link.com,2013-06-09 22:34:00,
2013-06-09 18:49:00,82.8,61.1,30.02,West,270,3.7,-999.0,48,-99.99,,,0.00,Acu-Link.com,2013-06-09 22:49:00,
2013-06-09 19:05:00,82.8,61.1,30.02,WSW,247,2.2,-999.0,48,-99.99,,,0.00,Acu-Link.com,2013-06-09 23:05:00,
2013-06-09 19:20:00,81.5,61.0,30.03,West,270,0.0,-999.0,50,-99.99,,,0.00,Acu-Link.com,2013-06-09 23:20:00,
2013-06-09 19:35:00,81.0,61.7,30.03,SW,225,0.0,-999.0,52,-99.99,,,0.00,Acu-Link.com,2013-06-09 23:35:00,
2013-06-09 19:50:00,81.3,61.4,30.04,SE,135,3.2,-999.0,51,-99.99,,,0.00,Acu-Link.com,2013-06-09 23:50:00,
2013-06-09 20:05:00,78.1,62.1,30.04,South,180,4.7,-999.0,58,-99.99,,,0.00,Acu-Link.com,2013-06-10 00:05:00,
2013-06-09 20:21:00,78.4,61.9,30.04,SSW,202,3.2,-999.0,57,-99.99,,,0.00,Acu-Link.com,2013-06-10 00:21:00,
2013-06-09 20:51:00,77.7,62.7,30.04,West,270,2.7,-999.0,60,-99.99,,,0.00,Acu-Link.com,2013-06-10 00:51:00,
2013-06-09 21:06:00,77.2,62.2,30.05,SSW,202,1.7,-999.0,60,-99.99,,,0.00,Acu-Link.com,2013-06-10 01:06:00,
2013-06-09 21:22:00,77.4,61.4,30.05,SSW,202,3.2,-999.0,58,-99.99,,,0.00,Acu-Link.com,2013-06-10 01:22:00,
2013-06-09 21:37:00,77.5,60.5,30.06,ESE,112,0.0,-999.0,56,-99.99,,,0.00,Acu-Link.com,2013-06-10 01:37:00,
2013-06-09 21:53:00,77.0,62.5,30.06,West,270,2.2,-999.0,61,-99.99,,,0.00,Acu-Link.com,2013-06-10 01:53:00,
2013-06-09 22:08:00,76.3,62.8,30.06,West,270,2.7,-999.0,63,-99.99,,,0.00,Acu-Link.com,2013-06-10 02:08:00,
2013-06-09 22:24:00,76.3,61.4,30.06,ESE,112,2.7,-999.0,60,-99.99,,,0.00,Acu-Link.com,2013-06-10 02:24:00,
2013-06-09 22:40:00,75.7,62.2,30.07,WNW,292,0.0,-999.0,63,-99.99,,,0.00,Acu-Link.com,2013-06-10 02:40:00,
2013-06-09 22:55:00,75.7,62.6,30.06,West,270,2.7,-999.0,64,-99.99,,,0.00,Acu-Link.com,2013-06-10 02:55:00,
2013-06-09 23:10:00,75.0,62.4,30.05,West,270,0.0,-999.0,65,-99.99,,,0.00,Acu-Link.com,2013-06-10 03:10:00,
2013-06-09 23:26:00,74.7,62.6,30.05,WNW,292,3.2,-999.0,66,-99.99,,,0.00,Acu-Link.com,2013-06-10 03:26:00,
2013-06-09 23:57:00,73.6,62.4,30.05,West,270,1.1,-999.0,68,-99.99,,,0.00,Acu-Link.com,2013-06-10 03:57:00,